createdAt,value
2024-01-12T00:00:32.957Z,8.93
2024-01-12T00:03:00.234Z,14.73
2024-01-12T00:05:27.720Z,9.68
2024-01-12T00:07:54.965Z,5.90
2024-01-12T00:10:22.178Z,7.75
2024-01-12T00:12:49.383Z,6.65
2024-01-12T00:15:16.812Z,19.38
2024-01-12T00:17:44.054Z,7.97
2024-01-12T00:20:11.955Z,7.43
2024-01-12T00:22:39.417Z,9.85
2024-01-12T00:25:07.272Z,9.45
2024-01-12T00:27:34.438Z,12.77
2024-01-12T00:30:01.741Z,5.20
2024-01-12T00:32:29.018Z,6.85
2024-01-12T00:34:56.222Z,5.32
2024-01-12T00:37:23.458Z,6.95
2024-01-12T00:39:50.600Z,8.18
2024-01-12T00:42:17.927Z,5.22
2024-01-12T00:44:45.135Z,10.95
2024-01-12T00:47:12.377Z,5.32
2024-01-12T00:49:39.745Z,11.30
2024-01-12T00:52:06.994Z,9.02
2024-01-12T00:54:34.229Z,11.88
2024-01-12T00:57:01.511Z,6.63
2024-01-12T00:59:28.769Z,11.43
2024-01-12T01:01:59.605Z,11.10
2024-01-12T01:04:27.456Z,13.30
2024-01-12T01:06:55.139Z,9.90
2024-01-12T01:09:22.507Z,6.57
2024-01-12T01:11:54.102Z,5.13
2024-01-12T01:14:23.962Z,11.10
2024-01-12T01:16:51.160Z,15.38
2024-01-12T01:19:18.834Z,9.90
2024-01-12T01:21:46.223Z,12.43
2024-01-12T01:24:13.441Z,9.35
2024-01-12T01:26:40.702Z,10.48
2024-01-12T01:29:07.913Z,11.15
2024-01-12T01:31:35.138Z,9.48
2024-01-12T01:34:03.076Z,9.30
2024-01-12T01:36:30.603Z,7.32
2024-01-12T01:38:57.809Z,7.15
2024-01-12T01:41:25.193Z,8.10
2024-01-12T01:43:52.798Z,9.88
2024-01-12T01:46:20.839Z,9.90
2024-01-12T01:48:48.354Z,9.38
2024-01-12T01:51:16.194Z,4.80
2024-01-12T01:53:44.025Z,5.53
2024-01-12T01:56:12.525Z,6.97
2024-01-12T01:58:40.318Z,6.05
2024-01-12T02:01:08.262Z,9.40
2024-01-12T02:03:35.704Z,6.55
2024-01-12T02:06:03.263Z,7.45
2024-01-12T02:08:31.382Z,6.55
2024-01-12T02:10:58.615Z,7.25
2024-01-12T02:13:26.172Z,6.28
2024-01-12T02:15:53.519Z,6.70
2024-01-12T02:18:21.013Z,6.05
2024-01-12T02:20:49.897Z,9.02
2024-01-12T02:23:17.317Z,8.98
2024-01-12T02:25:46.247Z,8.45
2024-01-12T02:28:14.251Z,9.25
2024-01-12T02:30:41.880Z,10.70
2024-01-12T02:33:09.865Z,4.28
2024-01-12T02:35:37.607Z,8.73
2024-01-12T02:38:05.061Z,8.55
2024-01-12T02:40:32.551Z,3.13
2024-01-12T02:42:59.732Z,4.85
2024-01-12T02:45:27.091Z,8.38
2024-01-12T02:47:54.441Z,6.93
2024-01-12T02:50:21.809Z,8.77
2024-01-12T02:52:49.255Z,6.30
2024-01-12T02:55:16.723Z,7.65
2024-01-12T02:57:44.010Z,4.65
2024-01-12T03:00:12.189Z,6.18
2024-01-12T03:02:39.437Z,4.95
2024-01-12T03:05:07.498Z,13.25
2024-01-12T03:07:34.698Z,6.75
2024-01-12T03:10:02.321Z,7.68
2024-01-12T03:12:29.843Z,6.47
2024-01-12T03:14:57.276Z,5.95
2024-01-12T03:17:24.632Z,7.10
2024-01-12T03:19:52.031Z,12.30
2024-01-12T03:22:19.355Z,9.07
2024-01-12T03:24:46.650Z,5.97
2024-01-12T03:27:13.913Z,9.32
2024-01-12T03:29:41.148Z,4.85
2024-01-12T03:32:08.480Z,5.88
2024-01-12T03:34:35.804Z,7.55
2024-01-12T03:37:03.136Z,8.15
2024-01-12T03:39:30.367Z,5.65
2024-01-12T03:41:57.640Z,12.05
2024-01-12T03:44:24.960Z,6.03
2024-01-12T03:46:52.177Z,5.88
2024-01-12T03:49:20.649Z,9.35
2024-01-12T03:51:56.141Z,6.28
2024-01-12T03:54:26.310Z,6.25
2024-01-12T03:56:54.096Z,8.55
2024-01-12T03:59:22.376Z,8.00
2024-01-12T04:01:51.141Z,5.50
2024-01-12T04:04:18.766Z,7.47
2024-01-12T04:06:46.297Z,6.88
2024-01-12T04:09:16.384Z,9.13
2024-01-12T04:11:44.302Z,5.32
2024-01-12T04:14:11.521Z,6.03
2024-01-12T04:16:38.709Z,4.30
2024-01-12T04:19:06.076Z,6.97
2024-01-12T04:21:33.366Z,8.25
2024-01-12T04:24:01.709Z,12.02
2024-01-12T04:26:29.387Z,7.55
2024-01-12T04:28:56.670Z,7.78
2024-01-12T04:31:23.837Z,9.35
2024-01-12T04:33:51.220Z,13.52
2024-01-12T04:36:24.347Z,4.63
2024-01-12T04:38:51.908Z,8.23
2024-01-12T04:41:19.258Z,5.90
2024-01-12T04:43:46.463Z,5.55
2024-01-12T04:46:13.992Z,8.60
2024-01-12T04:48:41.261Z,3.78
2024-01-12T04:51:08.562Z,9.10
2024-01-12T04:53:36.068Z,5.78
2024-01-12T04:56:03.296Z,5.65
2024-01-12T04:58:30.621Z,7.78
2024-01-12T05:00:57.899Z,5.65
2024-01-12T05:03:25.166Z,8.23
2024-01-12T05:05:52.521Z,7.80
2024-01-12T05:08:19.838Z,8.05
2024-01-12T05:10:47.000Z,5.03
2024-01-12T05:13:14.177Z,5.72
2024-01-12T05:15:41.475Z,6.20
2024-01-12T05:18:08.821Z,7.22
2024-01-12T05:20:36.238Z,7.07
2024-01-12T05:23:08.012Z,4.13
2024-01-12T05:25:35.554Z,7.03
2024-01-12T05:28:02.755Z,6.50
2024-01-12T05:30:30.061Z,5.88
2024-01-12T05:32:57.562Z,4.55
2024-01-12T05:35:24.868Z,9.93
2024-01-12T05:37:53.013Z,9.82
2024-01-12T05:40:20.395Z,8.55
2024-01-12T05:42:47.709Z,7.35
2024-01-12T05:45:15.313Z,4.93
2024-01-12T05:47:42.639Z,10.13
2024-01-12T05:50:10.193Z,5.38
2024-01-12T05:52:37.695Z,5.40
2024-01-12T05:55:05.260Z,5.00
2024-01-12T05:57:34.658Z,11.57
2024-01-12T06:00:03.755Z,10.68
2024-01-12T06:02:31.130Z,7.57
2024-01-12T06:04:58.370Z,5.95
2024-01-12T06:07:25.616Z,10.40
2024-01-12T06:09:52.898Z,8.82
2024-01-12T06:12:20.284Z,7.03
2024-01-12T06:14:48.382Z,10.07
2024-01-12T06:17:15.701Z,7.93
2024-01-12T06:19:43.333Z,8.82
2024-01-12T06:22:11.741Z,9.38
2024-01-12T06:24:39.412Z,11.20
2024-01-12T06:27:06.951Z,12.60
2024-01-12T06:29:35.786Z,12.38
2024-01-12T06:32:05.016Z,9.38
2024-01-12T06:34:32.292Z,9.85
2024-01-12T06:36:59.556Z,9.50
2024-01-12T06:39:26.785Z,6.68
2024-01-12T06:41:54.235Z,6.50
2024-01-12T06:44:21.582Z,6.20
2024-01-12T06:46:48.781Z,6.22
2024-01-12T06:49:16.008Z,8.23
2024-01-12T06:51:43.390Z,5.18
2024-01-12T06:54:12.350Z,6.05
2024-01-12T06:56:40.144Z,6.40
2024-01-12T06:59:07.519Z,10.57
2024-01-12T07:01:35.147Z,8.68
2024-01-12T07:04:02.428Z,6.40
2024-01-12T07:06:30.515Z,8.00
2024-01-12T07:08:57.820Z,7.50
2024-01-12T07:11:25.794Z,8.05
2024-01-12T07:13:53.222Z,7.93
2024-01-12T07:16:20.469Z,10.50
2024-01-12T07:18:47.858Z,11.55
2024-01-12T07:21:15.707Z,10.07
2024-01-12T07:23:43.003Z,8.85
2024-01-12T07:26:10.290Z,7.22
2024-01-12T07:28:37.529Z,8.70
2024-01-12T07:31:04.920Z,10.35
2024-01-12T07:33:32.220Z,7.57
2024-01-12T07:35:59.622Z,11.60
2024-01-12T07:38:26.920Z,10.57
2024-01-12T07:40:54.379Z,10.50
2024-01-12T07:43:21.588Z,8.02
2024-01-12T07:45:48.998Z,13.65
2024-01-12T07:48:16.384Z,7.22
2024-01-12T07:50:44.065Z,7.90
2024-01-12T07:53:11.544Z,10.98
2024-01-12T07:55:39.412Z,12.77
2024-01-12T07:58:06.639Z,14.57
2024-01-12T08:00:33.934Z,14.00
2024-01-12T08:03:01.127Z,7.75
2024-01-12T08:05:32.785Z,9.93
2024-01-12T08:08:01.326Z,7.17
2024-01-12T08:10:28.557Z,8.13
2024-01-12T08:12:56.064Z,9.18
2024-01-12T08:15:23.386Z,7.72
2024-01-12T08:17:50.833Z,11.05
2024-01-12T08:20:18.288Z,10.60
2024-01-12T08:22:45.832Z,10.60
2024-01-12T08:25:13.104Z,9.63
2024-01-12T08:27:40.388Z,8.32
2024-01-12T08:30:09.491Z,9.98
2024-01-12T08:32:37.317Z,7.85
2024-01-12T08:35:05.626Z,7.90
2024-01-12T08:37:32.833Z,7.18
2024-01-12T08:40:00.536Z,10.98
2024-01-12T08:42:27.742Z,9.38
2024-01-12T08:44:55.016Z,11.70
2024-01-12T08:47:22.712Z,9.38
2024-01-12T08:49:49.898Z,5.07
2024-01-12T08:52:17.118Z,9.05
2024-01-12T08:54:45.087Z,11.82
2024-01-12T08:57:12.300Z,5.57
2024-01-12T08:59:39.507Z,4.53
2024-01-12T09:02:06.777Z,12.13
2024-01-12T09:04:34.170Z,7.88
2024-01-12T09:07:01.727Z,13.40
2024-01-12T09:09:29.208Z,12.27
2024-01-12T09:11:56.809Z,14.57
2024-01-12T09:14:24.113Z,12.75
2024-01-12T09:16:51.480Z,9.07
2024-01-12T09:19:19.516Z,7.13
2024-01-12T09:21:46.769Z,13.15
2024-01-12T09:24:14.429Z,6.32
2024-01-12T09:26:41.936Z,10.80
2024-01-12T09:29:09.306Z,11.07
2024-01-12T09:31:36.669Z,13.65
2024-01-12T09:34:04.243Z,10.43
2024-01-12T09:36:31.568Z,9.30
2024-01-12T09:38:59.006Z,8.57
2024-01-12T09:41:51.109Z,4.47
2024-01-12T09:44:22.633Z,9.65
2024-01-12T09:46:49.853Z,11.25
2024-01-12T09:49:17.185Z,6.10
2024-01-12T09:51:44.614Z,6.25
2024-01-12T09:54:11.933Z,8.55
2024-01-12T09:59:09.767Z,17.23
2024-01-12T10:01:37.607Z,8.15
2024-01-12T10:04:05.099Z,7.40
2024-01-12T10:06:34.150Z,4.80
2024-01-12T10:09:01.473Z,8.15
2024-01-12T10:11:28.971Z,5.50
2024-01-12T10:13:56.299Z,5.30
2024-01-12T10:16:29.331Z,12.45
2024-01-12T10:19:03.229Z,11.70
2024-01-12T10:21:30.645Z,14.32
2024-01-12T10:24:08.146Z,9.45
2024-01-12T10:26:35.593Z,12.70
2024-01-12T10:29:06.269Z,13.32
2024-01-12T10:31:40.031Z,7.50
2024-01-12T10:34:15.955Z,8.85
2024-01-12T10:36:44.100Z,12.38
2024-01-12T10:39:15.606Z,11.95
2024-01-12T10:41:43.389Z,13.43
2024-01-12T10:44:12.712Z,9.15
2024-01-12T10:46:47.294Z,8.88
2024-01-12T10:49:19.551Z,12.75
2024-01-12T10:51:52.949Z,11.07
2024-01-12T10:54:31.285Z,9.93
2024-01-12T10:56:59.285Z,13.43
2024-01-12T10:59:26.913Z,19.45
2024-01-12T11:01:55.283Z,34.58
2024-01-12T11:04:25.456Z,17.58
2024-01-12T11:06:59.916Z,31.55
2024-01-12T11:09:28.604Z,13.43
2024-01-12T11:12:09.711Z,8.75
2024-01-12T11:14:41.760Z,16.35
2024-01-12T11:17:09.073Z,16.30
2024-01-12T11:19:36.677Z,15.10
2024-01-12T11:22:11.536Z,13.52
2024-01-12T11:24:44.381Z,14.85
2024-01-12T11:27:14.814Z,19.20
2024-01-12T11:29:46.655Z,15.18
2024-01-12T11:32:16.902Z,14.80
2024-01-12T11:34:44.448Z,23.58
2024-01-12T11:37:11.938Z,50.05
2024-01-12T11:39:39.602Z,252.15
2024-01-12T11:42:07.226Z,57.13
2024-01-12T11:44:35.480Z,46.85
2024-01-12T11:47:09.694Z,31.25
2024-01-12T11:49:37.389Z,29.20
2024-01-12T11:52:06.507Z,20.55
2024-01-12T11:54:34.501Z,27.25
2024-01-12T11:57:04.101Z,30.83
2024-01-12T11:59:32.033Z,21.15
2024-01-12T12:02:01.433Z,13.90
2024-01-12T12:04:28.725Z,14.90
2024-01-12T12:06:56.198Z,15.32
2024-01-12T12:09:23.671Z,13.60
2024-01-12T12:11:50.919Z,16.58
2024-01-12T12:14:18.082Z,12.57
2024-01-12T12:16:45.406Z,24.90
2024-01-12T12:19:12.840Z,18.92
2024-01-12T12:21:40.202Z,16.60
2024-01-12T12:24:07.705Z,17.83
2024-01-12T12:26:35.112Z,12.88
2024-01-12T12:29:02.424Z,16.55
2024-01-12T12:31:32.033Z,14.23
2024-01-12T12:34:00.058Z,11.80
2024-01-12T12:36:31.434Z,14.02
2024-01-12T12:38:58.911Z,15.98
2024-01-12T12:41:26.599Z,16.77
2024-01-12T12:43:54.846Z,16.02
2024-01-12T12:46:22.105Z,18.48
2024-01-12T12:48:50.577Z,15.02
2024-01-12T12:51:17.942Z,15.27
2024-01-12T12:53:45.294Z,13.55
2024-01-12T12:56:12.790Z,11.00
2024-01-12T12:58:40.058Z,16.17
2024-01-12T13:01:07.438Z,15.93
2024-01-12T13:03:34.758Z,12.13
2024-01-12T13:06:02.584Z,15.90
2024-01-12T13:08:29.904Z,15.02
2024-01-12T13:10:57.177Z,15.50
2024-01-12T13:13:24.499Z,11.40
2024-01-12T13:15:51.822Z,13.10
2024-01-12T13:18:19.253Z,16.20
2024-01-12T13:20:50.216Z,13.48
2024-01-12T13:23:19.117Z,17.67
2024-01-12T13:25:46.455Z,17.67
2024-01-12T13:28:13.881Z,20.25
2024-01-12T13:30:41.283Z,22.20
2024-01-12T13:33:09.545Z,45.42
2024-01-12T13:35:37.049Z,57.78
2024-01-12T13:38:04.647Z,42.85
2024-01-12T13:40:31.806Z,27.35
2024-01-12T13:42:59.313Z,23.95
2024-01-12T13:45:26.963Z,24.67
2024-01-12T13:47:54.777Z,28.63
2024-01-12T13:50:22.720Z,27.00
2024-01-12T13:52:50.140Z,27.65
2024-01-12T13:55:17.374Z,23.50
2024-01-12T13:57:44.538Z,15.98
2024-01-12T14:00:15.328Z,13.77
2024-01-12T14:02:42.874Z,16.33
2024-01-12T14:05:17.527Z,18.35
2024-01-12T14:07:46.528Z,27.17
2024-01-12T14:10:14.333Z,47.47
2024-01-12T14:12:41.686Z,58.15
2024-01-12T14:15:09.843Z,55.53
2024-01-12T14:17:37.320Z,54.63
2024-01-12T14:20:05.243Z,35.85
2024-01-12T14:22:32.952Z,32.63
2024-01-12T14:25:00.301Z,28.27
2024-01-12T14:27:27.712Z,20.30
2024-01-12T14:29:56.030Z,25.48
2024-01-12T14:32:23.755Z,26.13
2024-01-12T14:34:51.376Z,25.70
2024-01-12T14:37:18.659Z,28.20
2024-01-12T14:39:46.029Z,21.65
2024-01-12T14:42:13.258Z,8.82
2024-01-12T14:44:40.946Z,7.05
2024-01-12T14:47:09.014Z,19.10
2024-01-12T14:49:38.274Z,90.32
2024-01-12T14:52:05.869Z,67.72
2024-01-12T14:54:35.307Z,54.45
2024-01-12T14:57:04.113Z,40.72
2024-01-12T14:59:31.514Z,26.80
2024-01-12T15:01:58.785Z,50.35
2024-01-12T15:04:26.118Z,32.88
2024-01-12T15:06:53.439Z,28.63
2024-01-12T15:09:20.872Z,24.88
2024-01-12T15:11:48.430Z,20.77
2024-01-12T15:14:16.757Z,37.17
2024-01-12T15:16:45.103Z,32.95
2024-01-12T15:19:12.994Z,16.55
2024-01-12T15:21:40.799Z,19.80
2024-01-12T15:24:08.193Z,13.55
2024-01-12T15:26:35.425Z,16.45
2024-01-12T15:29:03.004Z,13.85
2024-01-12T15:31:30.444Z,33.42
2024-01-12T15:33:58.802Z,123.47
2024-01-12T15:36:26.187Z,104.78
2024-01-12T15:38:53.435Z,55.45
2024-01-12T15:41:20.729Z,41.38
2024-01-12T15:43:47.990Z,38.72
2024-01-12T15:46:15.788Z,27.27
2024-01-12T15:48:43.709Z,32.60
2024-01-12T15:51:16.830Z,20.00
2024-01-12T15:53:44.459Z,20.85
2024-01-12T15:56:11.697Z,66.85
2024-01-12T15:58:39.236Z,75.95
2024-01-12T16:01:06.513Z,31.67
2024-01-12T16:03:33.744Z,36.33
2024-01-12T16:06:07.436Z,26.33
2024-01-12T16:11:01.777Z,39.42
2024-01-12T16:13:29.013Z,60.00
2024-01-12T16:15:56.227Z,36.25
2024-01-12T16:18:23.514Z,34.47
2024-01-12T16:20:51.867Z,23.10
2024-01-12T16:23:19.127Z,20.35
2024-01-12T16:25:46.367Z,16.25
2024-01-12T16:28:13.928Z,19.23
2024-01-12T16:30:42.986Z,22.35
2024-01-12T16:33:10.363Z,87.78
2024-01-12T16:35:37.760Z,69.28
2024-01-12T16:38:05.114Z,41.58
2024-01-12T16:40:32.746Z,44.58
2024-01-12T16:43:00.165Z,53.78
2024-01-12T16:45:27.386Z,44.92
2024-01-12T16:47:54.937Z,41.72
2024-01-12T16:50:22.189Z,39.00
2024-01-12T16:52:49.402Z,47.55
2024-01-12T16:55:16.835Z,33.08
2024-01-12T16:57:43.986Z,32.17
2024-01-12T17:00:11.701Z,52.75
2024-01-12T17:02:40.423Z,55.80
2024-01-12T17:05:10.364Z,47.85
2024-01-12T17:07:37.747Z,35.25
2024-01-12T17:10:05.820Z,33.30
2024-01-12T17:12:33.056Z,41.38
2024-01-12T17:15:00.514Z,28.13
2024-01-12T17:17:30.925Z,35.00
2024-01-12T17:19:59.446Z,28.77
2024-01-12T17:22:26.734Z,23.38
2024-01-12T17:24:54.140Z,26.67
2024-01-12T17:27:21.357Z,26.65
2024-01-12T17:29:48.657Z,29.45
2024-01-12T17:32:15.999Z,29.23
2024-01-12T17:34:43.711Z,74.85
2024-01-12T17:37:14.571Z,63.20
2024-01-12T17:39:44.206Z,54.60
2024-01-12T17:42:11.467Z,57.03
2024-01-12T17:44:39.020Z,35.95
2024-01-12T17:47:06.346Z,34.95
2024-01-12T17:49:33.653Z,28.77
2024-01-12T17:52:00.945Z,30.58
2024-01-12T17:54:29.459Z,35.22
2024-01-12T17:56:56.944Z,33.97
2024-01-12T17:59:24.833Z,27.13
2024-01-12T18:01:52.130Z,30.40
2024-01-12T18:04:19.306Z,33.92
2024-01-12T18:06:46.702Z,45.10
2024-01-12T18:09:14.119Z,37.15
2024-01-12T18:11:41.680Z,60.72
2024-01-12T18:14:09.863Z,73.63
2024-01-12T18:16:37.872Z,60.53
2024-01-12T18:19:05.884Z,57.95
2024-01-12T18:21:33.557Z,50.53
2024-01-12T18:24:01.397Z,55.88
2024-01-12T18:26:28.632Z,59.38
2024-01-12T18:28:55.885Z,67.78
2024-01-12T18:31:25.217Z,64.50
2024-01-12T18:33:52.718Z,64.72
2024-01-12T18:36:20.229Z,86.65
2024-01-12T18:38:47.676Z,71.78
2024-01-12T18:41:14.921Z,67.15
2024-01-12T18:43:42.767Z,55.47
2024-01-12T18:46:10.066Z,51.85
2024-01-12T18:48:37.430Z,48.60
2024-01-12T18:51:05.361Z,56.78
2024-01-12T18:53:32.818Z,41.22
2024-01-12T18:56:00.055Z,46.67
2024-01-12T18:58:27.608Z,47.38
2024-01-12T19:00:54.906Z,40.78
2024-01-12T19:03:22.218Z,33.65
2024-01-12T19:05:49.725Z,47.63
2024-01-12T19:08:17.107Z,40.47
2024-01-12T19:10:47.925Z,27.60
2024-01-12T19:13:15.197Z,37.72
2024-01-12T19:15:42.522Z,34.30
2024-01-12T19:18:10.101Z,28.85
2024-01-12T19:20:37.820Z,34.50
2024-01-12T19:23:05.485Z,29.27
2024-01-12T19:25:32.670Z,26.20
2024-01-12T19:27:59.888Z,23.75
2024-01-12T19:30:27.170Z,28.55
2024-01-12T19:32:54.622Z,22.83
2024-01-12T19:35:21.848Z,21.55
2024-01-12T19:37:49.105Z,21.88
2024-01-12T19:40:16.759Z,21.45
2024-01-12T19:42:43.998Z,22.60
2024-01-12T19:45:11.358Z,32.60
2024-01-12T19:47:39.299Z,23.98
2024-01-12T19:50:07.468Z,24.70
2024-01-12T19:52:34.668Z,28.08
2024-01-12T19:55:01.944Z,26.25
2024-01-12T19:57:29.147Z,26.80
2024-01-12T19:59:56.417Z,21.20
2024-01-12T20:02:24.222Z,23.52
2024-01-12T20:04:51.596Z,20.58
2024-01-12T20:07:18.867Z,23.92
2024-01-12T20:09:46.183Z,20.13
2024-01-12T20:12:13.906Z,19.52
2024-01-12T20:14:41.347Z,22.88
2024-01-12T20:17:08.810Z,24.50
2024-01-12T20:19:36.156Z,30.67
2024-01-12T20:22:03.518Z,24.02
2024-01-12T20:24:30.770Z,20.33
2024-01-12T20:26:58.048Z,25.17
2024-01-12T20:29:25.306Z,22.25
2024-01-12T20:31:52.845Z,23.75
2024-01-12T20:34:20.189Z,21.75
2024-01-12T20:36:47.499Z,21.95
2024-01-12T20:39:15.442Z,19.35
2024-01-12T20:41:42.674Z,20.05
2024-01-12T20:44:09.862Z,22.05
2024-01-12T20:46:37.139Z,15.55
2024-01-12T20:49:04.815Z,13.80
2024-01-12T20:51:32.057Z,17.65
2024-01-12T20:53:59.662Z,19.33
2024-01-12T20:56:26.937Z,20.88
2024-01-12T20:58:55.587Z,18.35
2024-01-12T21:01:23.414Z,13.10
2024-01-12T21:03:53.532Z,25.52
2024-01-12T21:06:20.914Z,18.75
2024-01-12T21:08:48.329Z,21.08
2024-01-12T21:11:15.522Z,27.50
2024-01-12T21:13:42.695Z,22.38
2024-01-12T21:16:12.916Z,22.40
2024-01-12T21:18:40.372Z,17.30
2024-01-12T21:21:07.700Z,14.20
2024-01-12T21:23:35.089Z,12.88
2024-01-12T21:26:02.332Z,14.52
2024-01-12T21:28:29.576Z,14.57
2024-01-12T21:30:56.934Z,9.05
2024-01-12T21:33:24.540Z,17.42
2024-01-12T21:35:51.959Z,15.27
2024-01-12T21:38:20.393Z,15.25
2024-01-12T21:40:48.065Z,18.00
2024-01-12T21:43:15.320Z,14.45
2024-01-12T21:45:42.598Z,14.23
2024-01-12T21:48:10.008Z,12.32
2024-01-12T21:50:39.721Z,14.18
2024-01-12T21:53:08.121Z,15.38
2024-01-12T21:55:35.360Z,14.25
2024-01-12T21:58:06.624Z,17.40
2024-01-12T22:00:34.959Z,25.63
2024-01-12T22:03:02.954Z,32.60
2024-01-12T22:05:30.603Z,25.25
2024-01-12T22:07:57.803Z,19.65
2024-01-12T22:10:25.093Z,16.48
2024-01-12T22:12:53.669Z,21.70
2024-01-12T22:15:20.920Z,22.98
2024-01-12T22:17:48.615Z,15.90
2024-01-12T22:20:16.004Z,20.35
2024-01-12T22:22:43.594Z,13.02
2024-01-12T22:25:11.710Z,21.58
2024-01-12T22:27:40.100Z,16.50
2024-01-12T22:30:09.301Z,12.70
2024-01-12T22:32:37.310Z,11.98
2024-01-12T22:35:04.906Z,15.77
2024-01-12T22:37:32.212Z,21.48
2024-01-12T22:39:59.499Z,17.05
2024-01-12T22:42:26.781Z,15.65
2024-01-12T22:44:53.995Z,15.10
2024-01-12T22:47:21.655Z,13.40
2024-01-12T22:49:49.031Z,13.98
2024-01-12T22:52:16.253Z,17.48
2024-01-12T22:54:43.795Z,12.60
2024-01-12T22:57:11.149Z,12.70
2024-01-12T22:59:38.450Z,14.50
2024-01-12T23:02:05.935Z,16.15
2024-01-12T23:04:33.097Z,17.08
2024-01-12T23:07:00.298Z,14.55
2024-01-12T23:09:27.666Z,13.63
2024-01-12T23:11:56.368Z,16.33
2024-01-12T23:14:23.590Z,16.08
2024-01-12T23:16:51.393Z,17.73
2024-01-12T23:19:19.514Z,13.73
2024-01-12T23:21:46.877Z,10.52
2024-01-12T23:24:14.372Z,14.55
2024-01-12T23:26:41.844Z,16.17
2024-01-12T23:29:09.077Z,12.18
2024-01-12T23:31:36.601Z,13.75
2024-01-12T23:34:04.244Z,16.08
2024-01-12T23:36:31.695Z,19.00
2024-01-12T23:38:58.929Z,14.13
2024-01-12T23:41:31.815Z,20.13
2024-01-12T23:44:00.686Z,17.40
2024-01-12T23:46:28.110Z,13.80
2024-01-12T23:48:55.391Z,15.55
2024-01-12T23:51:24.430Z,12.57
2024-01-12T23:53:51.851Z,19.48
2024-01-12T23:56:20.011Z,18.55
2024-01-12T23:58:47.236Z,14.85
